Terminal Aerodrome Forecast
Issued by NWS

Home | Current Version | Previous Version | Text Only | Print | Product List | Glossary Off
Versions: 1 2 3 4 5 6 7 8 9 10 11 12 13 14 15 16 17 18 19 20 21 22 23 24 25

000
FTUS43 KLOT 081517 AAA
TAFDPA
TAF AMD
KDPA 081517Z 0815/0912 24013KT P6SM SCT080 BKN100
     FM090000 24009KT P6SM SCT040 BKN100
     FM090400 23010KT 6SM -SN OVC060
     FM090500 23007KT 3SM -SN OVC025
      TEMPO 0905/0909 1SM -SN SCT009 OVC015
     FM090900 29010KT 5SM -SHSN OVC018=

USA.gov is the U.S. government's official web portal to all federal, state and local government web resources and services.